| Record Date MM/DD/YYYY | Record Time HH:MM:SS | Record Julian Date NNN day of the year | Air Temperature Max (Degrees Fahrenheit F) | Time Max Air Temperature HH:MM:SS This is the time of max air temp for the prior hour interval listed for record [Time]. | Air Temperature Min (Degrees Fahrenheit F) | Time Min Air Temperature HH:MM:SS This is the time of min air temp for the prior hour interval listed for record [Time]. | Air Temperature Observed (Degrees Fahrenheit F) This is an instantaneous reading at the record [Time]. | Relative Humidity Max (Percent) | Time Max Relative Humidity HH:MM:SS This is the time of max relative humidity for the prior hour interval listed for record [Time]. | Relative Humidity Min (Percent) | Time Min Relative Humidity HH:MM:SS This is the time of min relative humidity for the prior hour interval listed for record [Time]. | Relative Humidity Observed (Percent) This is an instantaneous reading at the record [Time]. | Precipitation (Inches n.nn) rain fall that occurred during the prior hour interval listed for record [Time]. | Wind Speed (Miles Per Hour) Resultant Speed that occurred during the prior hour interval listed for record [Time]. | Wind Direction (Degrees) Resultant Direction that occurred during the prior hour interval listed for record [Time]. | Solar Radiation (Langley's) that occurred during the prior hour interval listed for record [Time]. | Soil Temperature Average at 2 inch depth (Degrees Fahrenheit F) that occurred during the prior hour interval listed for record [Time]. | Soil Temperature Observed at 2 inch depth (Degrees Fahrenheit F) This is an instantaneous reading at the record [Time]. | Soil Temperature Average at 4 inch depth (Degrees Fahrenheit F) that occurred during the prior hour interval listed for record [Time]. | Soil Temperature Observed at 4 inch depth (Degrees Fahrenheit F) This is an instantaneous reading at the record [Time]. |
|---|---|---|---|---|---|---|---|---|---|---|---|---|---|---|---|---|---|---|---|---|
| 08/26/2026 | 0:00:00 | 238 | 79 | 23:55:04 | 76 | 23:16:01 | 78 | 89 | 23:12:05 | 81 | 23:54:03 | 83.7 | 0 | 1.1 | 82 | 0 | 83 | 83 | 84 | 84 |
| 08/26/2026 | 1:00:00 | 238 | 78 | 0:00:00 | 76 | 0:52:05 | 76 | 88 | 0:56:02 | 84 | 0:00:00 | 88.1 | 0 | 0.2 | 196 | 0 | 83 | 83 | 83 | 83 |
| 08/26/2026 | 2:00:00 | 238 | 77 | 1:22:05 | 76 | 1:59:01 | 76 | 88 | 1:00:02 | 85 | 1:20:01 | 88.1 | 0 | 1.0 | 157 | 0 | 83 | 83 | 83 | 83 |
| 08/26/2026 | 3:00:00 | 238 | 76 | 2:00:02 | 75 | 2:59:05 | 75 | 90 | 2:56:00 | 88 | 2:00:01 | 89.6 | 0 | 0.6 | 273 | 0 | 83 | 82 | 83 | 83 |
| 08/26/2026 | 4:00:00 | 238 | 75 | 3:17:00 | 74 | 3:57:04 | 74 | 91 | 3:59:05 | 89 | 3:13:00 | 90.5 | 0 | 1.2 | 87 | 0 | 82 | 82 | 83 | 83 |
| 08/26/2026 | 5:00:00 | 238 | 75 | 4:39:02 | 74 | 4:12:03 | 75 | 91 | 4:22:00 | 90 | 4:08:04 | 90.8 | 0 | 0.6 | 238 | 0 | 82 | 82 | 82 | 82 |
| 08/26/2026 | 6:00:00 | 238 | 75 | 5:59:04 | 74 | 5:40:05 | 75 | 92 | 5:54:03 | 91 | 5:05:01 | 91.3 | 0 | 0.6 | 121 | 1 | 82 | 82 | 82 | 82 |
| 08/26/2026 | 7:00:00 | 238 | 77 | 7:00:00 | 75 | 6:00:01 | 77 | 91 | 6:02:01 | 89 | 6:57:05 | 89.5 | 0 | 1.1 | 188 | 5 | 82 | 82 | 82 | 82 |
| 08/26/2026 | 8:00:00 | 238 | 83 | 7:56:04 | 77 | 7:00:01 | 82 | 90 | 7:03:01 | 76 | 7:58:05 | 76.6 | 0 | 2.2 | 250 | 20 | 82 | 82 | 82 | 82 |
| 08/26/2026 | 9:00:00 | 238 | 85 | 8:57:00 | 82 | 8:00:04 | 85 | 77 | 8:01:04 | 72 | 8:59:01 | 73.3 | 0 | 3.4 | 248 | 22 | 83 | 83 | 83 | 83 |
| 08/26/2026 | 10:00:00 | 238 | 88 | 9:52:02 | 85 | 9:01:01 | 88 | 75 | 9:04:00 | 67 | 9:44:00 | 68.8 | 0 | 4.1 | 270 | 48 | 83 | 84 | 83 | 83 |
| 08/26/2026 | 11:00:00 | 238 | 91 | 10:46:05 | 88 | 10:00:00 | 90 | 70 | 10:12:04 | 58 | 10:49:04 | 61.01 | 0 | 5.2 | 238 | 53 | 84 | 85 | 84 | 84 |
| 08/26/2026 | 12:00:00 | 238 | 93 | 11:44:03 | 90 | 11:07:01 | 92 | 65 | 11:37:04 | 54 | 11:47:01 | 55.48 | 0 | 4.7 | 206 | 49 | 86 | 86 | 85 | 85 |
| 08/26/2026 | 13:00:00 | 238 | 96 | 12:46:01 | 92 | 12:00:00 | 95 | 58 | 12:00:03 | 46 | 12:47:00 | 49.86 | 0 | 4.8 | 237 | 74 | 87 | 87 | 85 | 86 |
| 08/26/2026 | 14:00:00 | 238 | 97 | 13:51:04 | 94 | 13:29:03 | 96 | 53 | 13:24:05 | 44 | 13:53:05 | 46.58 | 0 | 5.0 | 283 | 56 | 87 | 87 | 86 | 86 |
| 08/26/2026 | 15:00:00 | 238 | 98 | 14:13:04 | 93 | 14:58:03 | 93 | 54 | 14:57:01 | 42 | 14:35:05 | 51.74 | 0 | 4.5 | 319 | 32 | 88 | 87 | 87 | 87 |
| 08/26/2026 | 16:00:00 | 238 | 93 | 15:00:01 | 75 | 15:59:05 | 75 | 87 | 15:54:02 | 51 | 15:00:04 | 85.6 | 0.02 | 10.9 | 332 | 4 | 87 | 86 | 86 | 86 |
| 08/26/2026 | 17:00:00 | 238 | 75 | 16:00:00 | 73 | 16:08:03 | 74 | 90 | 16:46:00 | 85 | 16:19:00 | 90 | 0.06 | 8.1 | 90 | 0 | 85 | 84 | 85 | 84 |
| 08/26/2026 | 18:00:00 | 238 | 75 | 17:00:01 | 73 | 17:58:05 | 73 | 90 | 17:14:04 | 88 | 17:48:04 | 89.3 | 0.03 | 9.2 | 125 | 3 | 84 | 83 | 84 | 84 |
| 08/26/2026 | 19:00:00 | 238 | 73 | 18:12:03 | 72 | 18:59:04 | 73 | 90 | 18:56:05 | 89 | 18:00:04 | 90 | 0.01 | 3.4 | 133 | 1 | 83 | 83 | 83 | 83 |
| 08/26/2026 | 20:00:00 | 238 | 73 | 19:00:02 | 72 | 19:31:00 | 73 | 90 | 19:09:04 | 90 | 19:40:05 | 89.7 | 0.01 | 2.7 | 127 | 0 | 83 | 83 | 83 | 83 |
| 08/26/2026 | 21:00:00 | 238 | 73 | 20:03:00 | 72 | 20:42:03 | 72 | 91 | 20:51:00 | 90 | 20:06:04 | 90.7 | 0.01 | 2.8 | 78 | 0 | 82 | 82 | 83 | 82 |
| 08/26/2026 | 22:00:00 | 238 | 73 | 21:42:05 | 72 | 21:03:03 | 73 | 91 | 21:00:00 | 89 | 21:32:01 | 90.2 | 0.01 | 6.4 | 267 | 0 | 82 | 82 | 82 | 82 |
| 08/26/2026 | 23:00:00 | 238 | 73 | 22:00:02 | 73 | 22:52:04 | 73 | 91 | 22:59:02 | 90 | 22:00:04 | 91.3 | 0.01 | 5.4 | 222 | 0 | 82 | 82 | 82 | 82 |
| 08/27/2026 | 0:00:00 | 239 | 73 | 23:24:02 | 72 | 23:10:00 | 73 | 92 | 23:13:00 | 89 | 23:59:04 | 89 | 0.01 | 4.0 | 221 | 0 | 81 | 81 | 82 | 82 |
| 08/27/2026 | 1:00:00 | 239 | 73 | 0:00:02 | 72 | 0:47:04 | 72 | 91 | 0:59:03 | 89 | 0:00:05 | 91.4 | 0 | 2.2 | 64 | 0 | 81 | 81 | 81 | 81 |
| 08/27/2026 | 2:00:00 | 239 | 72 | 1:56:00 | 72 | 1:04:02 | 72 | 92 | 1:57:01 | 91 | 1:00:00 | 92 | 0 | 2.6 | 37 | 0 | 81 | 81 | 81 | 81 |
| 08/27/2026 | 3:00:00 | 239 | 72 | 2:00:03 | 71 | 2:59:00 | 71 | 93 | 2:50:03 | 92 | 2:03:00 | 93 | 0.01 | 2.2 | 175 | 0 | 81 | 81 | 81 | 81 |
| 08/27/2026 | 4:00:00 | 239 | 72 | 3:59:03 | 71 | 3:00:01 | 72 | 94 | 3:52:04 | 93 | 3:00:01 | 93.5 | 0.01 | 1.7 | 38 | 0 | 81 | 80 | 81 | 81 |
| 08/27/2026 | 5:00:00 | 239 | 72 | 4:18:02 | 72 | 4:43:05 | 72 | 94 | 4:04:03 | 93 | 4:54:03 | 93.1 | 0 | 2.3 | 105 | 0 | 80 | 80 | 81 | 81 |
| 08/27/2026 | 6:00:00 | 239 | 72 | 5:39:01 | 72 | 5:09:01 | 72 | 93 | 5:39:01 | 93 | 5:10:00 | 93.3 | 0 | 2.1 | 206 | 0 | 80 | 80 | 81 | 80 |
| 08/27/2026 | 7:00:00 | 239 | 72 | 6:58:05 | 72 | 6:00:00 | 72 | 94 | 6:33:03 | 93 | 6:57:02 | 93.1 | 0 | 4.0 | 170 | 5 | 80 | 80 | 80 | 80 |
| 08/27/2026 | 8:00:00 | 239 | 74 | 7:58:05 | 72 | 7:00:00 | 74 | 93 | 7:01:04 | 89 | 8:00:00 | 88.5 | 0.01 | 2.4 | 169 | 12 | 80 | 81 | 81 | 81 |
| 08/27/2026 | 9:00:00 | 239 | 76 | 8:54:04 | 74 | 8:00:03 | 75 | 89 | 8:15:05 | 85 | 8:59:03 | 85.2 | 0 | 3.4 | 262 | 18 | 81 | 81 | 81 | 81 |
| 08/27/2026 | 10:00:00 | 239 | 78 | 10:00:00 | 75 | 9:00:03 | 78 | 86 | 9:06:04 | 82 | 9:57:03 | 83.4 | 0 | 3.2 | 255 | 27 | 81 | 82 | 81 | 81 |
| 08/27/2026 | 11:00:00 | 239 | 81 | 10:51:02 | 78 | 10:00:00 | 81 | 83 | 10:00:05 | 76 | 10:52:02 | 77.39 | 0 | 4.1 | 269 | 43 | 82 | 82 | 82 | 82 |
| 08/27/2026 | 12:00:00 | 239 | 85 | 11:53:02 | 81 | 11:00:00 | 83 | 78 | 11:02:02 | 67 | 11:54:02 | 69.99 | 0 | 5.2 | 305 | 59 | 83 | 84 | 82 | 83 |
| 08/27/2026 | 13:00:00 | 239 | 85 | 12:54:05 | 83 | 12:00:02 | 85 | 74 | 12:36:02 | 67 | 12:14:01 | 71.69 | 0 | 4.8 | 312 | 50 | 84 | 84 | 83 | 84 |
| 08/27/2026 | 14:00:00 | 239 | 87 | 13:35:05 | 85 | 13:06:01 | 87 | 75 | 13:17:01 | 69 | 13:55:00 | 70.57 | 0 | 3.2 | 330 | 37 | 85 | 85 | 84 | 84 |
| 08/27/2026 | 15:00:00 | 239 | 88 | 14:44:02 | 86 | 14:27:02 | 87 | 73 | 14:02:02 | 67 | 14:45:01 | 68.29 | 0 | 3.3 | 358 | 31 | 85 | 85 | 84 | 84 |
| 08/27/2026 | 16:00:00 | 239 | 90 | 15:31:05 | 87 | 15:57:00 | 87 | 71 | 15:03:04 | 62 | 15:19:05 | 67.79 | 0.01 | 4.6 | 9 | 50 | 85 | 85 | 84 | 85 |
| 08/27/2026 | 17:00:00 | 239 | 88 | 16:55:05 | 87 | 16:00:00 | 88 | 70 | 16:15:03 | 64 | 16:56:04 | 64.56 | 0 | 4.9 | 25 | 28 | 85 | 85 | 85 | 85 |
| 08/27/2026 | 18:00:00 | 239 | 88 | 17:00:00 | 84 | 17:59:05 | 84 | 78 | 17:59:05 | 65 | 17:00:01 | 78.04 | 0 | 2.7 | 44 | 8 | 85 | 84 | 85 | 84 |
| 08/27/2026 | 19:00:00 | 239 | 84 | 18:00:00 | 79 | 18:55:03 | 79 | 85 | 19:00:00 | 78 | 18:08:04 | 85 | 0 | 0.8 | 44 | 1 | 84 | 84 | 84 | 84 |
| 08/27/2026 | 20:00:00 | 239 | 79 | 19:00:04 | 77 | 19:59:05 | 77 | 88 | 19:59:05 | 83 | 19:30:03 | 87.7 | 0 | 0.5 | 3 | 0 | 84 | 83 | 84 | 83 |
| 08/27/2026 | 21:00:00 | 239 | 78 | 20:30:04 | 76 | 20:15:04 | 77 | 90 | 20:18:00 | 88 | 20:00:02 | 89.6 | 0 | 3.4 | 148 | 0 | 83 | 83 | 83 | 83 |
| 08/27/2026 | 22:00:00 | 239 | 77 | 21:00:00 | 76 | 21:54:05 | 76 | 91 | 22:00:00 | 89 | 21:01:04 | 91.3 | 0 | 1.4 | 192 | 0 | 82 | 82 | 83 | 83 |
| 08/27/2026 | 23:00:00 | 239 | 76 | 22:09:04 | 75 | 22:55:03 | 75 | 92 | 22:59:05 | 91 | 22:00:01 | 92.1 | 0 | 0.9 | 158 | 0 | 82 | 82 | 82 | 82 |
| 08/28/2026 | 0:00:00 | 240 | 75 | 23:00:01 | 74 | 23:24:04 | 74 | 93 | 23:59:00 | 92 | 23:24:03 | 93 | 0 | 0.4 | 137 | 0 | 82 | 81 | 82 | 82 |
| 08/28/2026 | 1:00:00 | 240 | 74 | 0:05:01 | 73 | 0:37:00 | 74 | 94 | 0:48:01 | 92 | 0:32:02 | 93.6 | 0 | 0.3 | 58 | 0 | 81 | 81 | 82 | 81 |
| 08/28/2026 | 2:00:00 | 240 | 74 | 1:12:01 | 73 | 1:53:01 | 74 | 94 | 1:07:03 | 93 | 1:53:04 | 93.4 | 0 | 0.6 | 342 | 0 | 81 | 81 | 81 | 81 |
| 08/28/2026 | 3:00:00 | 240 | 74 | 2:07:03 | 73 | 2:59:00 | 73 | 94 | 2:06:02 | 93 | 2:58:03 | 93 | 0 | 1.7 | 348 | 0 | 81 | 80 | 81 | 81 |
| 08/28/2026 | 4:00:00 | 240 | 73 | 3:52:02 | 73 | 3:31:03 | 73 | 93 | 3:06:01 | 92 | 3:59:00 | 91.9 | 0 | 1.7 | 348 | 0 | 80 | 80 | 81 | 81 |
| 08/28/2026 | 5:00:00 | 240 | 73 | 4:13:00 | 73 | 4:28:05 | 73 | 92 | 4:57:03 | 91 | 4:16:03 | 92.4 | 0 | 3.1 | 341 | 0 | 80 | 80 | 80 | 80 |
| 08/28/2026 | 6:00:00 | 240 | 73 | 5:21:03 | 73 | 5:43:00 | 73 | 93 | 5:06:02 | 92 | 5:37:01 | 92.1 | 0 | 2.8 | 336 | 1 | 80 | 80 | 80 | 80 |
| 08/28/2026 | 7:00:00 | 240 | 76 | 6:59:03 | 73 | 6:00:00 | 76 | 92 | 6:01:00 | 87 | 6:58:05 | 87.1 | 0 | 3.0 | 334 | 13 | 80 | 80 | 80 | 80 |
| 08/28/2026 | 8:00:00 | 240 | 81 | 7:59:05 | 76 | 7:00:00 | 81 | 87 | 7:04:05 | 80 | 7:57:02 | 79.53 | 0 | 3.4 | 18 | 28 | 80 | 80 | 80 | 80 |
| 08/28/2026 | 9:00:00 | 240 | 84 | 8:59:05 | 80 | 8:03:01 | 84 | 80 | 8:04:04 | 73 | 8:59:01 | 74.03 | 0 | 3.6 | 1 | 45 | 81 | 81 | 81 | 81 |
| 08/28/2026 | 10:00:00 | 240 | 86 | 9:59:05 | 84 | 9:00:00 | 86 | 76 | 9:01:05 | 68 | 9:49:01 | 68.5 | 0 | 4.8 | 8 | 59 | 82 | 83 | 82 | 82 |
| 08/28/2026 | 11:00:00 | 240 | 89 | 10:46:00 | 86 | 10:01:05 | 89 | 72 | 10:03:02 | 50 | 10:51:03 | 54.44 | 0 | 7.5 | 359 | 70 | 83 | 84 | 82 | 83 |
| 08/28/2026 | 12:00:00 | 240 | 91 | 11:57:01 | 88 | 11:17:02 | 90 | 61 | 11:11:00 | 47 | 11:57:05 | 52.76 | 0 | 8.5 | 5 | 71 | 84 | 84 | 83 | 83 |
| 08/28/2026 | 13:00:00 | 240 | 90 | 12:00:05 | 88 | 12:22:00 | 90 | 54 | 12:05:04 | 47 | 12:06:03 | 49.1 | 0 | 8.8 | 2 | 55 | 84 | 84 | 84 | 84 |
| 08/28/2026 | 14:00:00 | 240 | 90 | 13:40:00 | 89 | 13:15:04 | 90 | 54 | 13:20:04 | 44 | 13:31:04 | 46.7 | 0 | 6.6 | 10 | 53 | 84 | 85 | 84 | 84 |
| 08/28/2026 | 15:00:00 | 240 | 91 | 14:59:05 | 89 | 14:13:03 | 91 | 51 | 14:19:02 | 41 | 14:57:05 | 42.99 | 0 | 7.9 | 339 | 50 | 84 | 84 | 84 | 84 |
| 08/28/2026 | 16:00:00 | 240 | 92 | 15:28:00 | 90 | 15:10:00 | 91 | 47 | 15:30:03 | 38 | 15:57:04 | 39.41 | 0 | 7.0 | 18 | 51 | 84 | 84 | 84 | 84 |
| 08/28/2026 | 17:00:00 | 240 | 91 | 16:02:05 | 89 | 16:59:03 | 89 | 46 | 16:51:00 | 37 | 16:04:00 | 43.13 | 0 | 5.7 | 5 | 31 | 84 | 84 | 84 | 84 |
| 08/28/2026 | 18:00:00 | 240 | 90 | 17:00:01 | 86 | 18:00:00 | 86 | 50 | 18:00:00 | 42 | 17:04:05 | 50.2 | 0 | 4.5 | 8 | 12 | 84 | 83 | 84 | 83 |
| 08/28/2026 | 19:00:00 | 240 | 86 | 18:00:00 | 77 | 19:00:00 | 77 | 74 | 18:57:02 | 50 | 18:01:04 | 73.13 | 0 | 2.2 | 16 | 1 | 83 | 83 | 83 | 83 |
| 08/28/2026 | 20:00:00 | 240 | 77 | 19:00:01 | 75 | 20:00:00 | 75 | 77 | 19:59:01 | 72 | 19:29:05 | 76.7 | 0 | 0.4 | 341 | 0 | 82 | 82 | 83 | 82 |
| 08/28/2026 | 21:00:00 | 240 | 76 | 20:46:05 | 74 | 20:14:03 | 76 | 79 | 20:13:02 | 72 | 20:46:04 | 73.77 | 0 | 1.3 | 4 | 0 | 82 | 81 | 82 | 82 |
| 08/28/2026 | 22:00:00 | 240 | 78 | 21:37:00 | 76 | 21:00:02 | 77 | 74 | 21:00:00 | 66 | 21:39:00 | 67.23 | 0 | 4.0 | 14 | 0 | 81 | 81 | 82 | 81 |
| 08/28/2026 | 23:00:00 | 240 | 78 | 22:00:03 | 76 | 22:44:04 | 76 | 71 | 22:43:02 | 67 | 22:06:02 | 69.94 | 0 | 4.6 | 21 | 0 | 81 | 80 | 81 | 81 |
| 08/29/2026 | 0:00:00 | 241 | 76 | 23:01:05 | 75 | 23:37:04 | 75 | 73 | 23:38:01 | 70 | 23:01:00 | 71.58 | 0 | 4.6 | 25 | 0 | 80 | 80 | 81 | 81 |
| 08/29/2026 | 1:00:00 | 241 | 75 | 0:21:01 | 74 | 0:58:04 | 75 | 74 | 0:58:03 | 71 | 0:02:01 | 73.56 | 0 | 4.6 | 21 | 0 | 80 | 80 | 80 | 80 |
| 08/29/2026 | 2:00:00 | 241 | 75 | 1:00:01 | 72 | 1:59:05 | 72 | 78 | 1:51:04 | 74 | 1:00:00 | 77.95 | 0 | 3.2 | 359 | 0 | 79 | 79 | 80 | 80 |
| 08/29/2026 | 3:00:00 | 241 | 72 | 2:00:04 | 70 | 2:59:05 | 70 | 82 | 2:59:04 | 78 | 2:00:00 | 81.6 | 0 | 0.9 | 341 | 0 | 79 | 79 | 80 | 80 |
| 08/29/2026 | 4:00:00 | 241 | 70 | 3:00:00 | 68 | 3:49:03 | 68 | 86 | 3:59:00 | 82 | 3:00:01 | 86.4 | 0 | 0.0 | 337 | 0 | 79 | 79 | 79 | 79 |
| 08/29/2026 | 5:00:00 | 241 | 69 | 4:10:05 | 67 | 4:59:05 | 67 | 88 | 4:40:02 | 86 | 4:15:05 | 87.4 | 0 | 0.6 | 329 | 0 | 78 | 78 | 79 | 79 |
| 08/29/2026 | 6:00:00 | 241 | 67 | 5:00:00 | 66 | 5:24:02 | 66 | 90 | 5:43:00 | 87 | 5:00:01 | 90 | 0 | 0.8 | 142 | 1 | 78 | 78 | 79 | 79 |
| 08/29/2026 | 7:00:00 | 241 | 74 | 6:59:04 | 66 | 6:00:02 | 73 | 90 | 6:18:03 | 80 | 7:00:00 | 80.4 | 0 | 1.5 | 333 | 13 | 78 | 78 | 78 | 78 |
| 08/29/2026 | 8:00:00 | 241 | 78 | 7:58:00 | 74 | 7:00:00 | 78 | 81 | 7:03:02 | 72 | 7:55:02 | 73.08 | 0 | 3.6 | 16 | 30 | 78 | 79 | 79 | 79 |
| 08/29/2026 | 9:00:00 | 241 | 84 | 8:51:02 | 78 | 8:00:01 | 84 | 74 | 8:02:04 | 65 | 8:53:04 | 67.25 | 0 | 2.1 | 348 | 47 | 79 | 80 | 79 | 80 |
| 08/29/2026 | 10:00:00 | 241 | 88 | 9:51:05 | 84 | 9:02:00 | 88 | 68 | 9:04:00 | 59 | 9:52:03 | 61.37 | 0 | 1.8 | 35 | 61 | 81 | 82 | 80 | 81 |
| 08/29/2026 | 11:00:00 | 241 | 89 | 10:59:03 | 87 | 10:05:02 | 89 | 62 | 10:00:00 | 48 | 10:41:05 | 51.74 | 0 | 4.2 | 330 | 70 | 82 | 83 | 81 | 82 |
| 08/29/2026 | 12:00:00 | 241 | 91 | 11:37:04 | 89 | 11:03:05 | 90 | 56 | 11:08:03 | 48 | 11:55:02 | 49.99 | 0 | 4.1 | 333 | 75 | 84 | 85 | 83 | 83 |
| 08/29/2026 | 13:00:00 | 241 | 93 | 12:35:00 | 90 | 12:03:03 | 92 | 54 | 12:31:05 | 46 | 12:35:02 | 47.39 | 0 | 2.7 | 333 | 75 | 85 | 86 | 84 | 85 |
| 08/29/2026 | 14:00:00 | 241 | 93 | 13:55:04 | 91 | 13:07:03 | 92 | 55 | 13:18:05 | 46 | 13:56:02 | 48.35 | 0 | 3.9 | 328 | 71 | 86 | 87 | 85 | 85 |
| 08/29/2026 | 15:00:00 | 241 | 93 | 14:05:03 | 91 | 14:16:00 | 93 | 52 | 14:29:05 | 46 | 14:07:02 | 49.24 | 0 | 3.3 | 314 | 51 | 87 | 87 | 86 | 86 |
| 08/29/2026 | 16:00:00 | 241 | 94 | 15:56:04 | 93 | 15:14:02 | 94 | 51 | 15:06:05 | 45 | 15:25:02 | 46.73 | 0 | 2.7 | 253 | 44 | 87 | 87 | 86 | 86 |
| 08/29/2026 | 17:00:00 | 241 | 94 | 16:04:01 | 93 | 16:21:04 | 93 | 52 | 16:57:05 | 46 | 16:26:05 | 47.67 | 0 | 2.8 | 287 | 30 | 87 | 87 | 86 | 86 |
| 08/29/2026 | 18:00:00 | 241 | 94 | 17:02:03 | 89 | 17:59:05 | 89 | 57 | 18:00:00 | 46 | 17:03:03 | 56.94 | 0 | 3.1 | 41 | 14 | 86 | 86 | 86 | 86 |
| 08/29/2026 | 19:00:00 | 241 | 89 | 18:00:00 | 83 | 18:59:05 | 83 | 73 | 18:58:02 | 57 | 18:00:04 | 72.88 | 0 | 1.6 | 67 | 1 | 86 | 85 | 85 | 85 |
| 08/29/2026 | 20:00:00 | 241 | 83 | 19:16:00 | 79 | 19:59:05 | 79 | 80 | 20:00:00 | 71 | 19:15:01 | 79.92 | 0 | 1.2 | 84 | 0 | 85 | 84 | 85 | 84 |
| 08/29/2026 | 21:00:00 | 241 | 79 | 20:00:01 | 77 | 20:59:04 | 77 | 84 | 20:59:05 | 80 | 20:00:00 | 83.7 | 0 | 0.1 | 127 | 0 | 84 | 84 | 84 | 84 |
| 08/29/2026 | 22:00:00 | 241 | 77 | 21:00:01 | 75 | 22:00:00 | 75 | 86 | 21:58:04 | 84 | 21:16:01 | 85.9 | 0 | 0.3 | 94 | 0 | 83 | 83 | 83 | 83 |
| 08/29/2026 | 23:00:00 | 241 | 75 | 22:00:00 | 74 | 22:54:01 | 74 | 90 | 22:57:05 | 86 | 22:01:00 | 89.7 | 0 | 0.6 | 138 | 0 | 83 | 82 | 83 | 83 |
| 08/30/2026 | 0:00:00 | 242 | 76 | 23:28:02 | 74 | 23:08:03 | 75 | 90 | 23:11:03 | 84 | 23:29:02 | 86 | 0 | 1.3 | 161 | 0 | 82 | 82 | 82 | 82 |
| 08/30/2026 | 1:00:00 | 242 | 76 | 0:13:01 | 75 | 0:52:02 | 75 | 88 | 0:53:03 | 85 | 0:14:05 | 87.3 | 0 | 0.8 | 135 | 0 | 82 | 82 | 82 | 82 |
| 08/30/2026 | 2:00:00 | 242 | 75 | 1:15:05 | 74 | 1:48:00 | 74 | 89 | 1:52:01 | 87 | 1:20:03 | 88.8 | 0 | 1.3 | 117 | 0 | 81 | 81 | 82 | 82 |
| 08/30/2026 | 3:00:00 | 242 | 74 | 2:00:03 | 73 | 2:59:04 | 73 | 91 | 2:59:00 | 89 | 2:04:04 | 91 | 0 | 0.4 | 72 | 0 | 81 | 81 | 81 | 81 |
| 08/30/2026 | 4:00:00 | 242 | 73 | 3:00:00 | 72 | 4:00:00 | 72 | 92 | 3:42:01 | 91 | 3:03:05 | 92.1 | 0 | 0.2 | 318 | 0 | 81 | 81 | 81 | 81 |
| 08/30/2026 | 5:00:00 | 242 | 72 | 4:18:03 | 71 | 4:26:05 | 72 | 93 | 4:42:02 | 92 | 4:00:01 | 93.1 | 0 | 0.6 | 156 | 0 | 80 | 80 | 81 | 81 |
| 08/30/2026 | 6:00:00 | 242 | 72 | 5:59:04 | 71 | 5:41:02 | 72 | 94 | 5:56:01 | 93 | 5:41:00 | 93.6 | 0 | 0.4 | 133 | 1 | 80 | 80 | 81 | 80 |
| 08/30/2026 | 7:00:00 | 242 | 77 | 7:00:00 | 72 | 6:00:01 | 77 | 94 | 6:00:01 | 88 | 6:59:03 | 87.8 | 0 | 3.1 | 139 | 13 | 80 | 80 | 80 | 80 |
| 08/30/2026 | 8:00:00 | 242 | 81 | 7:59:05 | 77 | 7:00:00 | 81 | 88 | 7:03:05 | 79 | 8:00:00 | 79.44 | 0 | 4.8 | 148 | 28 | 80 | 81 | 81 | 81 |
| 08/30/2026 | 9:00:00 | 242 | 84 | 8:57:00 | 81 | 8:04:02 | 84 | 81 | 8:05:02 | 72 | 8:59:02 | 72.76 | 0 | 4.8 | 126 | 46 | 81 | 82 | 81 | 81 |
| 08/30/2026 | 10:00:00 | 242 | 88 | 9:45:04 | 84 | 9:00:05 | 87 | 73 | 9:05:04 | 65 | 9:47:02 | 66.26 | 0 | 4.6 | 148 | 59 | 83 | 83 | 82 | 82 |
| 08/30/2026 | 11:00:00 | 242 | 90 | 10:33:04 | 87 | 10:09:04 | 89 | 70 | 10:02:03 | 60 | 10:34:01 | 62.83 | 0 | 5.8 | 142 | 64 | 84 | 85 | 83 | 84 |
| 08/30/2026 | 12:00:00 | 242 | 90 | 11:58:02 | 87 | 11:22:02 | 90 | 67 | 11:05:00 | 59 | 11:58:04 | 61.07 | 0 | 6.1 | 145 | 43 | 85 | 85 | 84 | 84 |
| 08/30/2026 | 13:00:00 | 242 | 91 | 12:29:00 | 88 | 12:48:05 | 91 | 65 | 12:08:02 | 56 | 12:31:01 | 58.71 | 0 | 6.4 | 152 | 63 | 86 | 86 | 85 | 85 |
| 08/30/2026 | 14:00:00 | 242 | 93 | 13:58:05 | 90 | 13:14:04 | 92 | 60 | 13:20:03 | 54 | 13:54:01 | 54.57 | 0 | 6.7 | 157 | 71 | 87 | 87 | 85 | 86 |
| 08/30/2026 | 15:00:00 | 242 | 93 | 14:54:04 | 89 | 14:19:03 | 91 | 61 | 14:28:04 | 51 | 14:55:05 | 55.9 | 0 | 5.0 | 124 | 32 | 87 | 87 | 86 | 86 |
| 08/30/2026 | 16:00:00 | 242 | 93 | 15:28:01 | 90 | 15:57:02 | 90 | 59 | 15:59:05 | 51 | 15:29:01 | 58.28 | 0 | 6.1 | 140 | 45 | 87 | 87 | 86 | 86 |
| 08/30/2026 | 17:00:00 | 242 | 90 | 16:49:04 | 88 | 16:31:01 | 90 | 63 | 16:30:02 | 56 | 16:56:03 | 57.73 | 0 | 4.7 | 127 | 14 | 86 | 86 | 86 | 86 |
| 08/30/2026 | 18:00:00 | 242 | 90 | 17:00:01 | 88 | 17:56:04 | 88 | 64 | 17:59:02 | 56 | 17:07:02 | 63.46 | 0 | 3.3 | 131 | 10 | 86 | 85 | 85 | 85 |
| 08/30/2026 | 19:00:00 | 242 | 88 | 18:00:00 | 80 | 18:59:04 | 80 | 78 | 19:00:00 | 63 | 18:01:04 | 78.19 | 0 | 0.9 | 106 | 1 | 85 | 84 | 85 | 84 |
| 08/30/2026 | 20:00:00 | 242 | 80 | 19:00:00 | 77 | 19:59:04 | 77 | 83 | 19:57:04 | 78 | 19:00:00 | 82.9 | 0 | 0.1 | 60 | 0 | 84 | 84 | 84 | 84 |
| 08/30/2026 | 21:00:00 | 242 | 77 | 20:00:00 | 76 | 20:59:01 | 76 | 87 | 20:59:05 | 83 | 20:03:03 | 86.4 | 0 | 0.0 | 91 | 0 | 83 | 83 | 84 | 83 |
| 08/30/2026 | 22:00:00 | 242 | 76 | 21:40:04 | 75 | 21:59:03 | 75 | 87 | 21:26:05 | 85 | 21:38:00 | 86.1 | 0 | 0.5 | 326 | 0 | 83 | 82 | 83 | 83 |
| 08/30/2026 | 23:00:00 | 242 | 75 | 22:25:02 | 74 | 22:59:02 | 74 | 88 | 22:53:04 | 86 | 22:26:04 | 88.1 | 0 | 0.2 | 36 | 0 | 82 | 82 | 83 | 82 |
| 08/31/2026 | 0:00:00 | 243 | 74 | 23:01:00 | 74 | 23:45:02 | 74 | 88 | 23:39:02 | 87 | 23:55:00 | 87.5 | 0 | 0.4 | 12 | 0 | 82 | 82 | 82 | 82 |
| 08/31/2026 | 1:00:00 | 243 | 74 | 0:00:00 | 73 | 0:51:01 | 73 | 90 | 0:59:05 | 88 | 0:00:01 | 90.3 | 0 | 0.7 | 346 | 0 | 81 | 81 | 82 | 82 |
| 08/31/2026 | 2:00:00 | 243 | 73 | 1:08:04 | 72 | 1:56:01 | 72 | 91 | 1:59:04 | 90 | 1:23:01 | 90.8 | 0 | 0.4 | 42 | 0 | 81 | 81 | 81 | 81 |
| 08/31/2026 | 3:00:00 | 243 | 72 | 2:00:00 | 71 | 2:55:02 | 72 | 92 | 2:58:04 | 90 | 2:04:05 | 92 | 0 | 0.6 | 141 | 0 | 81 | 81 | 81 | 81 |
| 08/31/2026 | 4:00:00 | 243 | 72 | 3:15:02 | 71 | 3:32:03 | 71 | 92 | 3:59:00 | 92 | 3:19:03 | 92.1 | 0 | 0.3 | 24 | 0 | 80 | 80 | 81 | 81 |
| 08/31/2026 | 5:00:00 | 243 | 72 | 4:22:00 | 71 | 4:42:04 | 71 | 93 | 4:54:04 | 92 | 4:00:05 | 92.4 | 0 | 0.3 | 131 | 0 | 80 | 80 | 81 | 80 |
| 08/31/2026 | 6:00:00 | 243 | 71 | 5:17:04 | 70 | 5:24:02 | 71 | 93 | 5:41:01 | 92 | 5:21:05 | 92.8 | 0 | 0.5 | 44 | 1 | 80 | 80 | 80 | 80 |
| 08/31/2026 | 7:00:00 | 243 | 79 | 6:59:05 | 71 | 6:00:03 | 79 | 93 | 6:04:04 | 84 | 7:00:00 | 84.4 | 0 | 1.0 | 178 | 13 | 80 | 80 | 80 | 80 |
| 08/31/2026 | 8:00:00 | 243 | 85 | 7:51:01 | 79 | 7:00:00 | 85 | 84 | 7:00:00 | 72 | 7:58:02 | 72.39 | 0 | 0.7 | 92 | 28 | 80 | 81 | 80 | 81 |
| 08/31/2026 | 9:00:00 | 243 | 88 | 8:59:05 | 85 | 8:00:00 | 88 | 74 | 8:01:05 | 68 | 8:49:05 | 68.65 | 0 | 1.4 | 299 | 45 | 81 | 82 | 81 | 81 |
| 08/31/2026 | 10:00:00 | 243 | 90 | 9:47:01 | 87 | 9:09:03 | 89 | 71 | 9:14:00 | 61 | 9:39:00 | 64.57 | 0 | 2.8 | 252 | 55 | 83 | 84 | 82 | 83 |
| 08/31/2026 | 11:00:00 | 243 | 92 | 10:29:02 | 89 | 10:00:03 | 89 | 67 | 10:06:02 | 58 | 10:29:04 | 64.78 | 0 | 3.2 | 106 | 64 | 84 | 85 | 83 | 84 |
| 08/31/2026 | 12:00:00 | 243 | 93 | 11:45:00 | 88 | 11:01:05 | 89 | 66 | 11:02:05 | 57 | 11:45:04 | 60.88 | 0 | 3.3 | 4 | 52 | 86 | 86 | 84 | 85 |
| 08/31/2026 | 13:00:00 | 243 | 94 | 12:57:01 | 89 | 12:00:01 | 94 | 62 | 12:01:01 | 53 | 12:57:04 | 55.24 | 0 | 3.5 | 101 | 66 | 86 | 87 | 85 | 85 |
| 08/31/2026 | 14:00:00 | 243 | 95 | 13:30:04 | 93 | 13:57:04 | 93 | 57 | 13:00:04 | 49 | 13:51:00 | 54.83 | 0 | 4.4 | 58 | 68 | 87 | 88 | 86 | 87 |
| 08/31/2026 | 15:00:00 | 243 | 96 | 14:55:05 | 92 | 14:23:05 | 96 | 56 | 14:01:04 | 47 | 14:56:01 | 50.11 | 0 | 3.9 | 119 | 52 | 88 | 88 | 87 | 87 |
| 08/31/2026 | 16:00:00 | 243 | 96 | 15:01:00 | 92 | 15:17:01 | 95 | 55 | 15:24:02 | 45 | 15:51:04 | 47.46 | 0 | 3.4 | 107 | 35 | 88 | 88 | 87 | 87 |
| 08/31/2026 | 17:00:00 | 243 | 96 | 16:00:05 | 93 | 16:41:05 | 93 | 55 | 16:53:00 | 47 | 16:02:00 | 52.97 | 0 | 5.7 | 127 | 27 | 88 | 87 | 87 | 87 |
| 08/31/2026 | 18:00:00 | 243 | 93 | 17:00:03 | 89 | 18:00:00 | 89 | 63 | 18:00:00 | 53 | 17:01:02 | 62.88 | 0 | 3.1 | 112 | 9 | 87 | 86 | 86 | 86 |
| 08/31/2026 | 19:00:00 | 243 | 89 | 18:00:00 | 82 | 19:00:00 | 82 | 77 | 18:59:03 | 62 | 18:02:01 | 77.02 | 0 | 1.4 | 40 | 0 | 86 | 85 | 86 | 85 |
| 08/31/2026 | 20:00:00 | 243 | 82 | 19:00:00 | 79 | 19:59:03 | 79 | 81 | 19:57:02 | 77 | 19:00:01 | 80.9 | 0 | 0.6 | 44 | 0 | 85 | 85 | 85 | 85 |
| 08/31/2026 | 21:00:00 | 243 | 79 | 20:08:05 | 78 | 20:59:04 | 78 | 84 | 20:58:04 | 81 | 20:00:01 | 83.4 | 0 | 0.2 | 49 | 0 | 84 | 84 | 84 | 84 |
| 08/31/2026 | 22:00:00 | 243 | 78 | 21:00:01 | 76 | 21:59:04 | 76 | 88 | 21:59:05 | 83 | 21:02:01 | 88.1 | 0 | 0.8 | 47 | 0 | 84 | 83 | 84 | 84 |
| 08/31/2026 | 23:00:00 | 243 | 77 | 22:09:01 | 75 | 22:41:00 | 76 | 89 | 22:44:03 | 87 | 22:18:03 | 87.5 | 0 | 0.9 | 125 | 0 | 83 | 83 | 83 | 83 |
| 09/01/2026 | 0:00:00 | 244 | 76 | 23:02:00 | 75 | 23:59:03 | 75 | 89 | 23:43:02 | 87 | 23:17:05 | 89.3 | 0 | 0.9 | 346 | 0 | 83 | 82 | 83 | 83 |
| 09/01/2026 | 1:00:00 | 244 | 76 | 0:14:00 | 75 | 0:44:00 | 75 | 89 | 0:00:00 | 87 | 0:18:01 | 88.7 | 0 | 0.2 | 336 | 0 | 82 | 82 | 83 | 82 |
| 09/01/2026 | 2:00:00 | 244 | 75 | 1:03:01 | 74 | 1:59:04 | 74 | 90 | 1:53:00 | 88 | 1:07:00 | 89.9 | 0 | 0.3 | 350 | 0 | 82 | 82 | 82 | 82 |
| 09/01/2026 | 3:00:00 | 244 | 75 | 2:00:00 | 73 | 2:38:05 | 73 | 91 | 2:46:03 | 90 | 2:04:05 | 90.8 | 0 | 0.2 | 153 | 0 | 81 | 81 | 82 | 82 |
| 09/01/2026 | 4:00:00 | 244 | 74 | 3:20:00 | 73 | 3:57:02 | 73 | 91 | 3:07:01 | 90 | 3:31:02 | 91.3 | 0 | 0.6 | 7 | 0 | 81 | 81 | 82 | 81 |
| 09/01/2026 | 5:00:00 | 244 | 73 | 4:00:02 | 72 | 4:48:04 | 72 | 92 | 4:57:04 | 91 | 4:06:04 | 92.2 | 0 | 0.6 | 180 | 0 | 81 | 81 | 81 | 81 |
| 09/01/2026 | 6:00:00 | 244 | 73 | 5:59:05 | 72 | 5:43:01 | 73 | 93 | 5:59:05 | 92 | 5:10:05 | 93 | 0 | 0.1 | 123 | 1 | 81 | 80 | 81 | 81 |
| 09/01/2026 | 7:00:00 | 244 | 79 | 6:50:02 | 73 | 6:00:00 | 78 | 93 | 6:01:02 | 83 | 6:51:02 | 83.9 | 0 | 0.4 | 11 | 12 | 80 | 80 | 81 | 81 |
| 09/01/2026 | 8:00:00 | 244 | 85 | 7:49:04 | 78 | 7:00:03 | 84 | 84 | 7:02:02 | 74 | 7:50:02 | 74.79 | 0 | 1.1 | 132 | 28 | 81 | 81 | 81 | 81 |
| 09/01/2026 | 9:00:00 | 244 | 90 | 8:58:03 | 84 | 8:00:00 | 90 | 76 | 8:02:03 | 65 | 8:59:05 | 65.13 | 0 | 1.4 | 317 | 44 | 82 | 83 | 82 | 82 |
| 09/01/2026 | 10:00:00 | 244 | 93 | 9:54:00 | 90 | 9:00:03 | 91 | 67 | 9:01:01 | 58 | 9:54:02 | 59.22 | 0 | 2.1 | 338 | 58 | 83 | 84 | 83 | 83 |
| 09/01/2026 | 11:00:00 | 244 | 96 | 10:57:00 | 91 | 10:01:01 | 96 | 61 | 10:07:01 | 50 | 10:58:01 | 50.82 | 0 | 2.4 | 172 | 66 | 85 | 86 | 84 | 84 |
| 09/01/2026 | 12:00:00 | 244 | 96 | 11:07:01 | 91 | 11:46:02 | 92 | 59 | 11:51:02 | 50 | 11:07:04 | 57.46 | 0 | 3.8 | 79 | 44 | 87 | 87 | 85 | 86 |
| 09/01/2026 | 13:00:00 | 244 | 96 | 12:32:03 | 92 | 12:00:01 | 93 | 60 | 12:15:00 | 51 | 12:33:04 | 52.78 | 0 | 2.9 | 114 | 53 | 87 | 88 | 86 | 86 |
| 09/01/2026 | 14:00:00 | 244 | 96 | 13:52:00 | 93 | 13:09:05 | 95 | 57 | 13:35:02 | 48 | 13:57:01 | 50.04 | 0 | 3.8 | 149 | 51 | 88 | 88 | 86 | 87 |
| 09/01/2026 | 15:00:00 | 244 | 97 | 14:56:01 | 94 | 14:12:03 | 97 | 52 | 14:00:01 | 42 | 14:32:02 | 44.18 | 0 | 3.9 | 145 | 54 | 88 | 88 | 87 | 87 |
| 09/01/2026 | 16:00:00 | 244 | 97 | 15:14:01 | 96 | 15:47:01 | 96 | 49 | 15:31:05 | 42 | 15:39:05 | 45.66 | 0 | 4.3 | 134 | 42 | 89 | 89 | 87 | 88 |
| 09/01/2026 | 17:00:00 | 244 | 96 | 16:22:02 | 94 | 17:00:00 | 94 | 50 | 16:51:05 | 42 | 16:26:00 | 48.7 | 0 | 4.3 | 121 | 26 | 88 | 88 | 87 | 87 |
| 09/01/2026 | 18:00:00 | 244 | 95 | 17:00:05 | 90 | 18:00:00 | 90 | 62 | 18:00:00 | 47 | 17:07:03 | 61.88 | 0 | 2.7 | 121 | 9 | 87 | 87 | 87 | 87 |
| 09/01/2026 | 19:00:00 | 244 | 90 | 18:00:00 | 83 | 18:59:05 | 83 | 74 | 18:59:05 | 62 | 18:00:03 | 73.67 | 0 | 0.8 | 55 | 0 | 86 | 86 | 86 | 86 |
| 09/01/2026 | 20:00:00 | 244 | 83 | 19:00:00 | 80 | 19:59:00 | 80 | 79 | 19:49:02 | 74 | 19:24:02 | 77.86 | 0 | 0.6 | 46 | 0 | 85 | 85 | 86 | 85 |
| 09/01/2026 | 21:00:00 | 244 | 80 | 20:00:02 | 79 | 20:59:04 | 79 | 82 | 20:29:05 | 78 | 20:02:01 | 80.9 | 0 | 0.2 | 13 | 0 | 85 | 84 | 85 | 85 |
| 09/01/2026 | 22:00:00 | 244 | 81 | 21:25:05 | 77 | 21:58:03 | 77 | 84 | 21:59:05 | 76 | 21:25:01 | 83.9 | 0 | 0.9 | 337 | 0 | 84 | 84 | 84 | 84 |
| 09/01/2026 | 23:00:00 | 244 | 78 | 22:28:02 | 77 | 22:59:03 | 77 | 86 | 22:50:02 | 83 | 22:22:03 | 85.4 | 0 | 0.5 | 356 | 0 | 83 | 83 | 84 | 84 |
| 09/02/2026 | 0:00:00 | 245 | 77 | 23:00:01 | 76 | 23:58:05 | 76 | 87 | 23:59:04 | 85 | 23:07:02 | 87.2 | 0 | 0.1 | 145 | 0 | 83 | 83 | 83 | 83 |
| 09/02/2026 | 1:00:00 | 245 | 76 | 0:24:02 | 75 | 0:59:03 | 75 | 88 | 0:59:02 | 87 | 0:28:01 | 87.9 | 0 | 0.3 | 37 | 0 | 83 | 82 | 83 | 83 |
| 09/02/2026 | 2:00:00 | 245 | 75 | 1:02:05 | 74 | 1:59:04 | 74 | 89 | 1:13:05 | 88 | 1:04:05 | 89 | 0 | 0.7 | 33 | 0 | 82 | 82 | 83 | 82 |
| 09/02/2026 | 3:00:00 | 245 | 74 | 2:19:03 | 73 | 2:22:03 | 74 | 91 | 2:46:03 | 89 | 2:20:03 | 89.7 | 0 | 1.1 | 119 | 0 | 82 | 82 | 82 | 82 |
| 09/02/2026 | 4:00:00 | 245 | 74 | 3:03:00 | 73 | 4:00:00 | 73 | 91 | 3:40:00 | 90 | 3:11:02 | 90.3 | 0 | 0.8 | 355 | 0 | 81 | 81 | 82 | 82 |
| 09/02/2026 | 5:00:00 | 245 | 73 | 4:15:02 | 72 | 4:33:02 | 73 | 92 | 4:57:03 | 90 | 4:17:04 | 91.6 | 0 | 0.5 | 108 | 0 | 81 | 81 | 82 | 82 |
| 09/02/2026 | 6:00:00 | 245 | 73 | 6:00:00 | 71 | 5:28:01 | 73 | 93 | 6:00:00 | 91 | 5:26:01 | 92.5 | 0 | 0.9 | 158 | 1 | 81 | 81 | 81 | 81 |
| 09/02/2026 | 7:00:00 | 245 | 81 | 6:59:05 | 73 | 6:00:00 | 81 | 93 | 6:03:02 | 81 | 7:00:00 | 81.3 | 0 | 0.1 | 50 | 12 | 81 | 81 | 81 | 81 |
| 09/02/2026 | 8:00:00 | 245 | 85 | 8:00:00 | 81 | 7:00:00 | 85 | 81 | 7:14:03 | 71 | 7:55:01 | 71.94 | 0 | 2.8 | 328 | 27 | 81 | 82 | 81 | 82 |
| Average | 81.92 | 79.33 | 80.6 | 78.85 | 72.78 | 75.82 | 0 | 2.63 | 19.17 | 82.94 | 82.95 | 82.86 | 82.86 | |||||||
| Total | 0.21 |